sensor_id;sensor_type;location;lat;lon;timestamp;temperature;humidity
59651;DHT22;45954;49.768;8.636;2023-10-09T00:02:07;15.30;99.90
59651;DHT22;45954;49.768;8.636;2023-10-09T00:04:34;15.30;99.90
59651;DHT22;45954;49.768;8.636;2023-10-09T00:07:03;15.30;99.90
59651;DHT22;45954;49.768;8.636;2023-10-09T00:09:29;15.20;99.90
59651;DHT22;45954;49.768;8.636;2023-10-09T00:11:59;15.30;99.90
59651;DHT22;45954;49.768;8.636;2023-10-09T00:14:30;15.30;99.90
59651;DHT22;45954;49.768;8.636;2023-10-09T00:16:59;15.40;99.90
59651;DHT22;45954;49.768;8.636;2023-10-09T00:19:37;15.40;99.90
59651;DHT22;45954;49.768;8.636;2023-10-09T00:22:03;15.40;99.90
59651;DHT22;45954;49.768;8.636;2023-10-09T00:24:33;15.40;99.90
59651;DHT22;45954;49.768;8.636;2023-10-09T00:26:59;15.40;99.90
59651;DHT22;45954;49.768;8.636;2023-10-09T00:29:41;15.30;99.90
59651;DHT22;45954;49.768;8.636;2023-10-09T00:32:15;15.30;99.90
59651;DHT22;45954;49.768;8.636;2023-10-09T00:34:53;15.30;99.90
59651;DHT22;45954;49.768;8.636;2023-10-09T00:37:24;15.30;99.90
59651;DHT22;45954;49.768;8.636;2023-10-09T00:39:52;15.40;99.90
59651;DHT22;45954;49.768;8.636;2023-10-09T00:42:26;15.40;99.90
59651;DHT22;45954;49.768;8.636;2023-10-09T00:45:01;15.40;99.90
59651;DHT22;45954;49.768;8.636;2023-10-09T00:47:34;15.30;99.90
59651;DHT22;45954;49.768;8.636;2023-10-09T00:50:03;15.40;99.90
59651;DHT22;45954;49.768;8.636;2023-10-09T00:52:52;15.30;99.90
59651;DHT22;45954;49.768;8.636;2023-10-09T00:55:34;15.30;99.90
59651;DHT22;45954;49.768;8.636;2023-10-09T00:58:14;15.30;99.90
59651;DHT22;45954;49.768;8.636;2023-10-09T01:00:50;15.40;99.90
59651;DHT22;45954;49.768;8.636;2023-10-09T01:03:19;15.40;99.90
59651;DHT22;45954;49.768;8.636;2023-10-09T01:05:51;15.40;99.90
59651;DHT22;45954;49.768;8.636;2023-10-09T01:08:24;15.40;99.90
59651;DHT22;45954;49.768;8.636;2023-10-09T01:10:55;15.40;99.90
59651;DHT22;45954;49.768;8.636;2023-10-09T01:13:48;15.30;99.90
59651;DHT22;45954;49.768;8.636;2023-10-09T01:16:22;15.20;99.90
59651;DHT22;45954;49.768;8.636;2023-10-09T01:18:51;15.30;99.90
59651;DHT22;45954;49.768;8.636;2023-10-09T01:21:21;15.40;99.90
59651;DHT22;45954;49.768;8.636;2023-10-09T01:23:50;15.30;99.90
59651;DHT22;45954;49.768;8.636;2023-10-09T01:26:40;15.30;99.90
59651;DHT22;45954;49.768;8.636;2023-10-09T01:29:14;15.40;99.90
59651;DHT22;45954;49.768;8.636;2023-10-09T01:31:52;15.50;99.90
59651;DHT22;45954;49.768;8.636;2023-10-09T01:34:39;15.50;99.90
59651;DHT22;45954;49.768;8.636;2023-10-09T01:37:10;15.40;99.90
59651;DHT22;45954;49.768;8.636;2023-10-09T01:39:58;15.40;99.90
59651;DHT22;45954;49.768;8.636;2023-10-09T01:42:26;15.40;99.90
59651;DHT22;45954;49.768;8.636;2023-10-09T01:44:55;15.50;99.90
59651;DHT22;45954;49.768;8.636;2023-10-09T01:47:24;15.40;99.90
59651;DHT22;45954;49.768;8.636;2023-10-09T01:49:51;15.50;99.90
59651;DHT22;45954;49.768;8.636;2023-10-09T01:52:19;15.50;99.90
59651;DHT22;45954;49.768;8.636;2023-10-09T01:54:50;15.50;99.90
59651;DHT22;45954;49.768;8.636;2023-10-09T01:57:20;15.50;99.90
59651;DHT22;45954;49.768;8.636;2023-10-09T01:59:51;15.50;99.90
59651;DHT22;45954;49.768;8.636;2023-10-09T02:02:20;15.50;99.90
59651;DHT22;45954;49.768;8.636;2023-10-09T02:04:53;15.50;99.90
59651;DHT22;45954;49.768;8.636;2023-10-09T02:07:31;15.70;99.90
59651;DHT22;45954;49.768;8.636;2023-10-09T02:10:07;15.60;99.90
59651;DHT22;45954;49.768;8.636;2023-10-09T02:13:00;15.60;99.90
59651;DHT22;45954;49.768;8.636;2023-10-09T02:15:37;15.50;99.90
59651;DHT22;45954;49.768;8.636;2023-10-09T02:18:07;15.60;99.90
59651;DHT22;45954;49.768;8.636;2023-10-09T02:21:06;15.50;99.90
59651;DHT22;45954;49.768;8.636;2023-10-09T02:23:33;15.50;99.90
59651;DHT22;45954;49.768;8.636;2023-10-09T02:26:17;15.50;99.90
59651;DHT22;45954;49.768;8.636;2023-10-09T02:29:06;15.60;99.90
59651;DHT22;45954;49.768;8.636;2023-10-09T02:31:38;15.60;99.90
59651;DHT22;45954;49.768;8.636;2023-10-09T02:34:10;15.60;99.90
59651;DHT22;45954;49.768;8.636;2023-10-09T02:36:37;15.60;99.90
59651;DHT22;45954;49.768;8.636;2023-10-09T02:39:15;15.60;99.90
59651;DHT22;45954;49.768;8.636;2023-10-09T02:41:50;15.70;99.90
59651;DHT22;45954;49.768;8.636;2023-10-09T02:44:16;15.70;99.90
59651;DHT22;45954;49.768;8.636;2023-10-09T02:46:43;15.70;99.90
59651;DHT22;45954;49.768;8.636;2023-10-09T02:49:10;15.70;99.90
59651;DHT22;45954;49.768;8.636;2023-10-09T02:51:42;15.70;99.90
59651;DHT22;45954;49.768;8.636;2023-10-09T02:54:08;15.70;99.90
59651;DHT22;45954;49.768;8.636;2023-10-09T02:56:48;15.70;99.90
59651;DHT22;45954;49.768;8.636;2023-10-09T02:59:22;15.70;99.90
59651;DHT22;45954;49.768;8.636;2023-10-09T03:01:50;15.60;99.90
59651;DHT22;45954;49.768;8.636;2023-10-09T03:04:19;15.70;99.90
59651;DHT22;45954;49.768;8.636;2023-10-09T03:06:45;15.70;99.90
59651;DHT22;45954;49.768;8.636;2023-10-09T03:09:20;15.70;99.90
59651;DHT22;45954;49.768;8.636;2023-10-09T03:11:58;15.60;99.90
59651;DHT22;45954;49.768;8.636;2023-10-09T03:14:32;15.60;99.90
59651;DHT22;45954;49.768;8.636;2023-10-09T03:17:04;15.60;99.90
59651;DHT22;45954;49.768;8.636;2023-10-09T03:19:33;15.50;99.90
59651;DHT22;45954;49.768;8.636;2023-10-09T03:22:08;15.50;99.90
59651;DHT22;45954;49.768;8.636;2023-10-09T03:24:36;15.60;99.90
59651;DHT22;45954;49.768;8.636;2023-10-09T03:27:03;15.50;99.90
59651;DHT22;45954;49.768;8.636;2023-10-09T03:29:29;15.60;99.90
59651;DHT22;45954;49.768;8.636;2023-10-09T03:31:55;15.60;99.90
59651;DHT22;45954;49.768;8.636;2023-10-09T03:34:23;15.50;99.90
59651;DHT22;45954;49.768;8.636;2023-10-09T03:36:56;15.60;99.90
59651;DHT22;45954;49.768;8.636;2023-10-09T03:39:32;15.70;99.90
59651;DHT22;45954;49.768;8.636;2023-10-09T03:42:07;15.70;99.90
59651;DHT22;45954;49.768;8.636;2023-10-09T03:44:38;15.70;99.90
59651;DHT22;45954;49.768;8.636;2023-10-09T03:47:10;15.70;99.90
59651;DHT22;45954;49.768;8.636;2023-10-09T03:49:37;15.60;99.90
59651;DHT22;45954;49.768;8.636;2023-10-09T03:52:05;15.70;99.90
59651;DHT22;45954;49.768;8.636;2023-10-09T03:54:35;15.80;99.90
59651;DHT22;45954;49.768;8.636;2023-10-09T03:57:01;15.70;99.90
59651;DHT22;45954;49.768;8.636;2023-10-09T03:59:28;15.90;99.90
59651;DHT22;45954;49.768;8.636;2023-10-09T04:01:57;15.80;99.90
59651;DHT22;45954;49.768;8.636;2023-10-09T04:04:24;15.70;99.90
59651;DHT22;45954;49.768;8.636;2023-10-09T04:06:51;15.80;99.90
59651;DHT22;45954;49.768;8.636;2023-10-09T04:09:19;15.70;99.90
59651;DHT22;45954;49.768;8.636;2023-10-09T04:11:51;15.80;99.90
59651;DHT22;45954;49.768;8.636;2023-10-09T04:14:40;16.00;99.90
59651;DHT22;45954;49.768;8.636;2023-10-09T04:17:20;16.00;99.90
59651;DHT22;45954;49.768;8.636;2023-10-09T04:19:59;15.80;99.90
59651;DHT22;45954;49.768;8.636;2023-10-09T04:23:00;15.90;99.90
59651;DHT22;45954;49.768;8.636;2023-10-09T04:25:31;15.80;99.90
59651;DHT22;45954;49.768;8.636;2023-10-09T04:28:11;15.80;99.90
59651;DHT22;45954;49.768;8.636;2023-10-09T04:30:41;15.80;99.90
59651;DHT22;45954;49.768;8.636;2023-10-09T04:33:15;15.70;99.90
59651;DHT22;45954;49.768;8.636;2023-10-09T04:36:10;15.80;99.90
59651;DHT22;45954;49.768;8.636;2023-10-09T04:38:53;15.90;99.90
59651;DHT22;45954;49.768;8.636;2023-10-09T04:41:28;15.90;99.90
59651;DHT22;45954;49.768;8.636;2023-10-09T04:43:58;15.80;99.90
59651;DHT22;45954;49.768;8.636;2023-10-09T04:46:46;15.90;99.90
59651;DHT22;45954;49.768;8.636;2023-10-09T04:49:34;15.90;99.90
59651;DHT22;45954;49.768;8.636;2023-10-09T04:52:27;15.90;99.90
59651;DHT22;45954;49.768;8.636;2023-10-09T04:54:56;15.90;99.90
59651;DHT22;45954;49.768;8.636;2023-10-09T04:57:44;16.00;99.90
59651;DHT22;45954;49.768;8.636;2023-10-09T05:00:16;15.90;99.90
59651;DHT22;45954;49.768;8.636;2023-10-09T05:03:00;15.90;99.90
59651;DHT22;45954;49.768;8.636;2023-10-09T05:05:39;16.00;99.90
59651;DHT22;45954;49.768;8.636;2023-10-09T05:08:08;16.00;99.90
59651;DHT22;45954;49.768;8.636;2023-10-09T05:13:33;15.90;99.90
59651;DHT22;45954;49.768;8.636;2023-10-09T05:16:08;16.10;99.90
59651;DHT22;45954;49.768;8.636;2023-10-09T05:18:49;16.20;99.90
59651;DHT22;45954;49.768;8.636;2023-10-09T05:21:36;16.30;99.90
59651;DHT22;45954;49.768;8.636;2023-10-09T05:24:13;16.30;99.90
59651;DHT22;45954;49.768;8.636;2023-10-09T05:26:41;16.20;99.90
59651;DHT22;45954;49.768;8.636;2023-10-09T05:29:21;16.20;99.90
59651;DHT22;45954;49.768;8.636;2023-10-09T05:31:54;16.20;99.90
59651;DHT22;45954;49.768;8.636;2023-10-09T05:34:44;16.30;99.90
59651;DHT22;45954;49.768;8.636;2023-10-09T05:37:30;16.20;99.90
59651;DHT22;45954;49.768;8.636;2023-10-09T05:40:03;16.10;99.90
59651;DHT22;45954;49.768;8.636;2023-10-09T05:42:42;16.30;99.90
59651;DHT22;45954;49.768;8.636;2023-10-09T05:45:14;16.40;99.90
59651;DHT22;45954;49.768;8.636;2023-10-09T05:50:20;16.30;99.90
59651;DHT22;45954;49.768;8.636;2023-10-09T05:52:52;16.40;99.90
59651;DHT22;45954;49.768;8.636;2023-10-09T05:55:23;16.40;99.90
59651;DHT22;45954;49.768;8.636;2023-10-09T05:57:50;16.40;99.90
59651;DHT22;45954;49.768;8.636;2023-10-09T06:00:26;16.20;99.90
59651;DHT22;45954;49.768;8.636;2023-10-09T06:03:11;16.20;99.90
59651;DHT22;45954;49.768;8.636;2023-10-09T06:05:46;16.20;99.90
59651;DHT22;45954;49.768;8.636;2023-10-09T06:08:26;16.20;99.90
59651;DHT22;45954;49.768;8.636;2023-10-09T06:10:53;16.10;99.90
59651;DHT22;45954;49.768;8.636;2023-10-09T06:13:32;16.10;99.90
59651;DHT22;45954;49.768;8.636;2023-10-09T06:16:04;16.20;99.90
59651;DHT22;45954;49.768;8.636;2023-10-09T06:18:56;16.20;99.90
59651;DHT22;45954;49.768;8.636;2023-10-09T06:21:40;16.20;99.90
59651;DHT22;45954;49.768;8.636;2023-10-09T06:24:23;16.30;99.90
59651;DHT22;45954;49.768;8.636;2023-10-09T06:26:50;16.30;99.90
59651;DHT22;45954;49.768;8.636;2023-10-09T06:29:33;16.60;99.90
59651;DHT22;45954;49.768;8.636;2023-10-09T06:32:02;16.80;99.90
59651;DHT22;45954;49.768;8.636;2023-10-09T06:34:55;16.80;99.90
59651;DHT22;45954;49.768;8.636;2023-10-09T06:37:23;16.90;99.90
59651;DHT22;45954;49.768;8.636;2023-10-09T06:39:55;16.90;99.90
59651;DHT22;45954;49.768;8.636;2023-10-09T06:42:28;17.20;99.90
59651;DHT22;45954;49.768;8.636;2023-10-09T06:45:12;17.10;99.90
59651;DHT22;45954;49.768;8.636;2023-10-09T06:47:50;17.00;99.90
59651;DHT22;45954;49.768;8.636;2023-10-09T06:50:24;17.20;99.90
59651;DHT22;45954;49.768;8.636;2023-10-09T06:52:51;17.40;99.90
59651;DHT22;45954;49.768;8.636;2023-10-09T06:55:44;17.40;99.90
59651;DHT22;45954;49.768;8.636;2023-10-09T06:58:30;17.60;99.90
59651;DHT22;45954;49.768;8.636;2023-10-09T07:01:08;17.70;99.90
59651;DHT22;45954;49.768;8.636;2023-10-09T07:03:55;17.60;99.90
59651;DHT22;45954;49.768;8.636;2023-10-09T07:06:40;17.60;99.90
59651;DHT22;45954;49.768;8.636;2023-10-09T07:09:06;17.50;99.90
59651;DHT22;45954;49.768;8.636;2023-10-09T07:11:33;17.50;99.90
59651;DHT22;45954;49.768;8.636;2023-10-09T07:14:05;17.60;99.90
59651;DHT22;45954;49.768;8.636;2023-10-09T07:17:05;17.60;99.90
59651;DHT22;45954;49.768;8.636;2023-10-09T07:19:54;17.70;99.90
59651;DHT22;45954;49.768;8.636;2023-10-09T07:22:20;17.70;99.90
59651;DHT22;45954;49.768;8.636;2023-10-09T07:24:53;17.80;99.90
59651;DHT22;45954;49.768;8.636;2023-10-09T07:27:23;17.80;99.90
59651;DHT22;45954;49.768;8.636;2023-10-09T07:30:13;17.90;99.90
59651;DHT22;45954;49.768;8.636;2023-10-09T07:35:41;17.90;99.90
59651;DHT22;45954;49.768;8.636;2023-10-09T07:38:19;18.00;99.90
59651;DHT22;45954;49.768;8.636;2023-10-09T07:40:47;18.00;99.90
59651;DHT22;45954;49.768;8.636;2023-10-09T07:43:30;18.00;99.90
59651;DHT22;45954;49.768;8.636;2023-10-09T07:46:09;18.10;99.90
59651;DHT22;45954;49.768;8.636;2023-10-09T07:48:55;18.10;99.90
59651;DHT22;45954;49.768;8.636;2023-10-09T07:51:22;18.10;99.90
59651;DHT22;45954;49.768;8.636;2023-10-09T07:53:55;18.20;99.90
59651;DHT22;45954;49.768;8.636;2023-10-09T07:56:35;18.20;99.90
59651;DHT22;45954;49.768;8.636;2023-10-09T07:59:12;18.30;99.90
59651;DHT22;45954;49.768;8.636;2023-10-09T08:01:41;18.30;99.90
59651;DHT22;45954;49.768;8.636;2023-10-09T08:04:25;18.40;99.90
59651;DHT22;45954;49.768;8.636;2023-10-09T08:07:11;18.40;99.90
59651;DHT22;45954;49.768;8.636;2023-10-09T08:09:55;18.50;99.90
59651;DHT22;45954;49.768;8.636;2023-10-09T08:12:42;18.50;99.90
59651;DHT22;45954;49.768;8.636;2023-10-09T08:15:46;18.60;99.90
59651;DHT22;45954;49.768;8.636;2023-10-09T08:18:17;18.70;99.90
59651;DHT22;45954;49.768;8.636;2023-10-09T08:21:06;18.70;99.90
59651;DHT22;45954;49.768;8.636;2023-10-09T08:23:32;18.80;99.90
59651;DHT22;45954;49.768;8.636;2023-10-09T08:26:17;18.80;99.90
59651;DHT22;45954;49.768;8.636;2023-10-09T08:28:58;18.90;99.90
59651;DHT22;45954;49.768;8.636;2023-10-09T08:31:43;19.00;99.90
59651;DHT22;45954;49.768;8.636;2023-10-09T08:34:13;18.90;99.90
59651;DHT22;45954;49.768;8.636;2023-10-09T08:37:00;19.00;99.90
59651;DHT22;45954;49.768;8.636;2023-10-09T08:39:25;19.10;99.90
59651;DHT22;45954;49.768;8.636;2023-10-09T08:41:55;19.10;99.90
59651;DHT22;45954;49.768;8.636;2023-10-09T08:44:25;19.10;99.90
59651;DHT22;45954;49.768;8.636;2023-10-09T08:46:54;19.10;99.90
59651;DHT22;45954;49.768;8.636;2023-10-09T08:49:21;19.00;99.90
59651;DHT22;45954;49.768;8.636;2023-10-09T08:51:47;18.90;99.90
59651;DHT22;45954;49.768;8.636;2023-10-09T08:54:14;18.90;99.90
59651;DHT22;45954;49.768;8.636;2023-10-09T08:56:41;19.10;99.90
59651;DHT22;45954;49.768;8.636;2023-10-09T08:59:17;19.10;99.90
59651;DHT22;45954;49.768;8.636;2023-10-09T09:01:48;19.10;99.90
59651;DHT22;45954;49.768;8.636;2023-10-09T09:04:42;19.00;99.90
59651;DHT22;45954;49.768;8.636;2023-10-09T09:07:28;19.00;99.90
59651;DHT22;45954;49.768;8.636;2023-10-09T09:10:00;19.00;99.90
59651;DHT22;45954;49.768;8.636;2023-10-09T09:12:46;19.00;99.90
59651;DHT22;45954;49.768;8.636;2023-10-09T09:15:14;19.10;99.90
59651;DHT22;45954;49.768;8.636;2023-10-09T09:17:45;19.20;99.90
59651;DHT22;45954;49.768;8.636;2023-10-09T09:20:25;19.30;99.90
59651;DHT22;45954;49.768;8.636;2023-10-09T09:23:09;19.20;99.90
59651;DHT22;45954;49.768;8.636;2023-10-09T09:25:47;19.30;99.90
59651;DHT22;45954;49.768;8.636;2023-10-09T09:28:26;19.30;99.90
59651;DHT22;45954;49.768;8.636;2023-10-09T09:31:08;19.30;99.90
59651;DHT22;45954;49.768;8.636;2023-10-09T09:33:39;19.30;99.90
59651;DHT22;45954;49.768;8.636;2023-10-09T09:36:13;19.30;99.90
59651;DHT22;45954;49.768;8.636;2023-10-09T09:38:39;19.30;99.90
59651;DHT22;45954;49.768;8.636;2023-10-09T09:41:14;19.40;99.90
59651;DHT22;45954;49.768;8.636;2023-10-09T09:43:54;19.50;99.90
59651;DHT22;45954;49.768;8.636;2023-10-09T09:46:32;19.40;99.90
59651;DHT22;45954;49.768;8.636;2023-10-09T09:49:06;19.40;99.90
59651;DHT22;45954;49.768;8.636;2023-10-09T09:51:42;19.40;99.90
59651;DHT22;45954;49.768;8.636;2023-10-09T09:54:14;19.50;99.90
59651;DHT22;45954;49.768;8.636;2023-10-09T09:56:45;19.60;99.90
59651;DHT22;45954;49.768;8.636;2023-10-09T09:59:18;19.50;99.90
59651;DHT22;45954;49.768;8.636;2023-10-09T10:01:56;19.50;99.90
59651;DHT22;45954;49.768;8.636;2023-10-09T10:04:28;19.60;99.90
59651;DHT22;45954;49.768;8.636;2023-10-09T10:06:56;19.50;99.90
59651;DHT22;45954;49.768;8.636;2023-10-09T10:09:42;19.50;99.90
59651;DHT22;45954;49.768;8.636;2023-10-09T10:12:11;19.50;99.90
59651;DHT22;45954;49.768;8.636;2023-10-09T10:14:54;19.60;99.90
59651;DHT22;45954;49.768;8.636;2023-10-09T10:17:25;19.70;99.90
59651;DHT22;45954;49.768;8.636;2023-10-09T10:20:09;19.80;99.90
59651;DHT22;45954;49.768;8.636;2023-10-09T10:22:44;19.70;99.90
59651;DHT22;45954;49.768;8.636;2023-10-09T10:25:45;19.70;99.90
59651;DHT22;45954;49.768;8.636;2023-10-09T10:28:21;19.70;99.90
59651;DHT22;45954;49.768;8.636;2023-10-09T10:30:57;19.70;99.90
59651;DHT22;45954;49.768;8.636;2023-10-09T10:36:19;19.80;99.90
59651;DHT22;45954;49.768;8.636;2023-10-09T10:41:57;19.90;99.90
59651;DHT22;45954;49.768;8.636;2023-10-09T10:47:06;20.00;99.90
59651;DHT22;45954;49.768;8.636;2023-10-09T10:49:50;20.00;99.90
59651;DHT22;45954;49.768;8.636;2023-10-09T10:52:24;20.10;99.90
59651;DHT22;45954;49.768;8.636;2023-10-09T10:55:16;20.20;99.90
59651;DHT22;45954;49.768;8.636;2023-10-09T10:57:44;20.10;99.90
59651;DHT22;45954;49.768;8.636;2023-10-09T11:00:19;20.20;99.90
59651;DHT22;45954;49.768;8.636;2023-10-09T11:03:04;20.30;99.90
59651;DHT22;45954;49.768;8.636;2023-10-09T11:05:43;20.40;99.90
59651;DHT22;45954;49.768;8.636;2023-10-09T11:08:17;20.50;99.90
59651;DHT22;45954;49.768;8.636;2023-10-09T11:10:51;20.50;99.90
59651;DHT22;45954;49.768;8.636;2023-10-09T11:13:26;20.50;99.90
59651;DHT22;45954;49.768;8.636;2023-10-09T11:16:04;20.60;99.90
59651;DHT22;45954;49.768;8.636;2023-10-09T11:18:49;20.50;99.90
59651;DHT22;45954;49.768;8.636;2023-10-09T11:21:15;20.60;99.90
59651;DHT22;45954;49.768;8.636;2023-10-09T11:23:42;20.60;99.90
59651;DHT22;45954;49.768;8.636;2023-10-09T11:26:18;20.80;99.90
59651;DHT22;45954;49.768;8.636;2023-10-09T11:29:11;21.00;99.90
59651;DHT22;45954;49.768;8.636;2023-10-09T11:32:06;21.20;98.90
59651;DHT22;45954;49.768;8.636;2023-10-09T11:34:47;21.40;99.70
59651;DHT22;45954;49.768;8.636;2023-10-09T11:37:22;21.50;98.50
59651;DHT22;45954;49.768;8.636;2023-10-09T11:40:32;21.40;98.70
59651;DHT22;45954;49.768;8.636;2023-10-09T11:43:17;21.20;98.60
59651;DHT22;45954;49.768;8.636;2023-10-09T11:45:43;21.30;99.10
59651;DHT22;45954;49.768;8.636;2023-10-09T11:48:21;21.30;99.30
59651;DHT22;45954;49.768;8.636;2023-10-09T11:51:13;21.50;99.20
59651;DHT22;45954;49.768;8.636;2023-10-09T11:53:45;21.60;98.90
59651;DHT22;45954;49.768;8.636;2023-10-09T11:56:22;21.80;99.30
59651;DHT22;45954;49.768;8.636;2023-10-09T11:58:49;22.10;99.20
59651;DHT22;45954;49.768;8.636;2023-10-09T12:01:16;22.30;99.30
59651;DHT22;45954;49.768;8.636;2023-10-09T12:03:44;22.50;98.90
59651;DHT22;45954;49.768;8.636;2023-10-09T12:06:16;22.50;98.10
59651;DHT22;45954;49.768;8.636;2023-10-09T12:08:45;22.30;98.40
59651;DHT22;45954;49.768;8.636;2023-10-09T12:11:18;22.50;97.70
59651;DHT22;45954;49.768;8.636;2023-10-09T12:13:48;22.60;97.90
59651;DHT22;45954;49.768;8.636;2023-10-09T12:16:14;22.70;97.60
59651;DHT22;45954;49.768;8.636;2023-10-09T12:18:43;22.70;97.70
59651;DHT22;45954;49.768;8.636;2023-10-09T12:21:19;22.70;97.50
59651;DHT22;45954;49.768;8.636;2023-10-09T12:23:48;22.40;97.70
59651;DHT22;45954;49.768;8.636;2023-10-09T12:26:15;22.50;97.90
59651;DHT22;45954;49.768;8.636;2023-10-09T12:28:41;22.50;98.10
59651;DHT22;45954;49.768;8.636;2023-10-09T12:31:15;22.40;97.90
59651;DHT22;45954;49.768;8.636;2023-10-09T12:33:46;22.30;98.40
59651;DHT22;45954;49.768;8.636;2023-10-09T12:36:13;22.50;98.10
59651;DHT22;45954;49.768;8.636;2023-10-09T12:38:47;22.50;98.30
59651;DHT22;45954;49.768;8.636;2023-10-09T12:41:18;22.50;98.50
59651;DHT22;45954;49.768;8.636;2023-10-09T12:43:51;22.50;98.50
59651;DHT22;45954;49.768;8.636;2023-10-09T12:46:21;22.70;98.40
59651;DHT22;45954;49.768;8.636;2023-10-09T12:48:54;22.80;98.00
59651;DHT22;45954;49.768;8.636;2023-10-09T12:51:21;22.60;98.00
59651;DHT22;45954;49.768;8.636;2023-10-09T12:53:51;22.70;98.20
59651;DHT22;45954;49.768;8.636;2023-10-09T12:56:24;22.60;98.00
59651;DHT22;45954;49.768;8.636;2023-10-09T12:59:03;22.70;97.70
59651;DHT22;45954;49.768;8.636;2023-10-09T13:01:33;22.70;97.40
59651;DHT22;45954;49.768;8.636;2023-10-09T13:04:12;22.60;97.10
59651;DHT22;45954;49.768;8.636;2023-10-09T13:06:41;22.50;97.80
59651;DHT22;45954;49.768;8.636;2023-10-09T13:09:14;22.50;97.30
59651;DHT22;45954;49.768;8.636;2023-10-09T13:11:45;22.50;97.10
59651;DHT22;45954;49.768;8.636;2023-10-09T13:14:13;22.60;97.90
59651;DHT22;45954;49.768;8.636;2023-10-09T13:16:59;22.60;97.50
59651;DHT22;45954;49.768;8.636;2023-10-09T13:19:28;22.60;97.20
59651;DHT22;45954;49.768;8.636;2023-10-09T13:21:54;22.70;96.90
59651;DHT22;45954;49.768;8.636;2023-10-09T13:24:20;22.70;96.30
59651;DHT22;45954;49.768;8.636;2023-10-09T13:26:50;22.80;96.60
59651;DHT22;45954;49.768;8.636;2023-10-09T13:29:24;22.80;96.80
59651;DHT22;45954;49.768;8.636;2023-10-09T13:31:50;23.00;96.80
59651;DHT22;45954;49.768;8.636;2023-10-09T13:34:23;23.00;95.90
59651;DHT22;45954;49.768;8.636;2023-10-09T13:36:54;23.00;96.70
59651;DHT22;45954;49.768;8.636;2023-10-09T13:39:21;23.00;96.40
59651;DHT22;45954;49.768;8.636;2023-10-09T13:41:58;23.10;96.60
59651;DHT22;45954;49.768;8.636;2023-10-09T13:46:55;23.20;96.20
59651;DHT22;45954;49.768;8.636;2023-10-09T13:49:31;23.20;96.00
59651;DHT22;45954;49.768;8.636;2023-10-09T13:52:02;23.20;96.20
59651;DHT22;45954;49.768;8.636;2023-10-09T13:54:28;23.20;95.90
59651;DHT22;45954;49.768;8.636;2023-10-09T13:57:01;23.20;95.50
59651;DHT22;45954;49.768;8.636;2023-10-09T13:59:30;23.30;95.50
59651;DHT22;45954;49.768;8.636;2023-10-09T14:01:57;23.10;96.00
59651;DHT22;45954;49.768;8.636;2023-10-09T14:04:25;23.20;96.20
59651;DHT22;45954;49.768;8.636;2023-10-09T14:06:54;23.20;95.60
59651;DHT22;45954;49.768;8.636;2023-10-09T14:09:25;23.10;95.90
59651;DHT22;45954;49.768;8.636;2023-10-09T14:12:01;23.10;95.40
59651;DHT22;45954;49.768;8.636;2023-10-09T14:14:45;23.20;95.90
59651;DHT22;45954;49.768;8.636;2023-10-09T14:17:19;23.40;95.30
59651;DHT22;45954;49.768;8.636;2023-10-09T14:19:52;23.70;95.20
59651;DHT22;45954;49.768;8.636;2023-10-09T14:22:21;23.90;95.00
59651;DHT22;45954;49.768;8.636;2023-10-09T14:24:51;24.20;94.90
59651;DHT22;45954;49.768;8.636;2023-10-09T14:27:22;24.30;94.20
59651;DHT22;45954;49.768;8.636;2023-10-09T14:29:54;24.30;93.40
59651;DHT22;45954;49.768;8.636;2023-10-09T14:32:23;24.30;93.50
59651;DHT22;45954;49.768;8.636;2023-10-09T14:34:56;24.20;93.50
59651;DHT22;45954;49.768;8.636;2023-10-09T14:37:29;24.30;93.30
59651;DHT22;45954;49.768;8.636;2023-10-09T14:39:57;24.30;93.60
59651;DHT22;45954;49.768;8.636;2023-10-09T14:42:24;24.30;93.50
59651;DHT22;45954;49.768;8.636;2023-10-09T14:44:53;24.40;93.70
59651;DHT22;45954;49.768;8.636;2023-10-09T14:47:21;24.30;93.40
59651;DHT22;45954;49.768;8.636;2023-10-09T14:49:48;24.10;94.00
59651;DHT22;45954;49.768;8.636;2023-10-09T14:52:15;24.10;95.00
59651;DHT22;45954;49.768;8.636;2023-10-09T14:54:46;23.90;94.50
59651;DHT22;45954;49.768;8.636;2023-10-09T14:57:12;23.90;94.70
59651;DHT22;45954;49.768;8.636;2023-10-09T14:59:40;23.80;94.70
59651;DHT22;45954;49.768;8.636;2023-10-09T15:02:09;23.80;94.80
59651;DHT22;45954;49.768;8.636;2023-10-09T15:04:37;23.70;94.90
59651;DHT22;45954;49.768;8.636;2023-10-09T15:07:04;23.60;94.60
59651;DHT22;45954;49.768;8.636;2023-10-09T15:09:34;23.60;93.80
59651;DHT22;45954;49.768;8.636;2023-10-09T15:12:02;23.60;94.80
59651;DHT22;45954;49.768;8.636;2023-10-09T15:14:32;23.50;93.90
59651;DHT22;45954;49.768;8.636;2023-10-09T15:16:58;23.50;93.70
59651;DHT22;45954;49.768;8.636;2023-10-09T15:19:24;23.50;93.90
59651;DHT22;45954;49.768;8.636;2023-10-09T15:21:56;23.40;94.40
59651;DHT22;45954;49.768;8.636;2023-10-09T15:24:24;23.30;93.40
59651;DHT22;45954;49.768;8.636;2023-10-09T15:26:51;23.30;93.80
59651;DHT22;45954;49.768;8.636;2023-10-09T15:29:25;23.20;93.90
59651;DHT22;45954;49.768;8.636;2023-10-09T15:32:00;23.20;93.40
59651;DHT22;45954;49.768;8.636;2023-10-09T15:34:31;23.20;93.50
59651;DHT22;45954;49.768;8.636;2023-10-09T15:36:57;23.20;93.00
59651;DHT22;45954;49.768;8.636;2023-10-09T15:39:23;23.20;93.30
59651;DHT22;45954;49.768;8.636;2023-10-09T15:41:49;23.10;92.70
59651;DHT22;45954;49.768;8.636;2023-10-09T15:44:17;23.20;93.00
59651;DHT22;45954;49.768;8.636;2023-10-09T15:46:43;23.20;93.00
59651;DHT22;45954;49.768;8.636;2023-10-09T15:49:12;23.20;93.30
59651;DHT22;45954;49.768;8.636;2023-10-09T15:51:39;23.10;93.30
59651;DHT22;45954;49.768;8.636;2023-10-09T15:54:06;23.10;93.40
59651;DHT22;45954;49.768;8.636;2023-10-09T15:56:34;23.00;93.60
59651;DHT22;45954;49.768;8.636;2023-10-09T15:59:00;23.00;93.30
59651;DHT22;45954;49.768;8.636;2023-10-09T16:01:26;22.90;93.10
59651;DHT22;45954;49.768;8.636;2023-10-09T16:03:52;22.90;93.00
59651;DHT22;45954;49.768;8.636;2023-10-09T16:06:19;23.00;93.10
59651;DHT22;45954;49.768;8.636;2023-10-09T16:08:49;22.90;93.30
59651;DHT22;45954;49.768;8.636;2023-10-09T16:11:20;22.90;93.80
59651;DHT22;45954;49.768;8.636;2023-10-09T16:13:50;22.90;93.40
59651;DHT22;45954;49.768;8.636;2023-10-09T16:16:30;22.90;94.50
59651;DHT22;45954;49.768;8.636;2023-10-09T16:18:57;22.60;95.00
59651;DHT22;45954;49.768;8.636;2023-10-09T16:21:23;22.40;94.50
59651;DHT22;45954;49.768;8.636;2023-10-09T16:23:51;22.30;94.90
59651;DHT22;45954;49.768;8.636;2023-10-09T16:26:17;22.20;95.40
59651;DHT22;45954;49.768;8.636;2023-10-09T16:28:44;22.20;96.70
59651;DHT22;45954;49.768;8.636;2023-10-09T16:31:10;22.10;97.00
59651;DHT22;45954;49.768;8.636;2023-10-09T16:33:47;22.10;97.30